sensor_id;sensor_type;location;lat;lon;timestamp;P1;durP1;ratioP1;P2;durP2;ratioP2
26050;SDS011;13825;53.496;10.020;2023-09-12T00:44:12;37.70;;;23.67;;
26050;SDS011;13825;53.496;10.020;2023-09-12T00:47:22;39.77;;;23.70;;
26050;SDS011;13825;53.496;10.020;2023-09-12T00:50:14;40.87;;;23.53;;
26050;SDS011;13825;53.496;10.020;2023-09-12T00:52:55;40.80;;;22.73;;
26050;SDS011;13825;53.496;10.020;2023-09-12T00:55:29;38.20;;;21.57;;
26050;SDS011;13825;53.496;10.020;2023-09-12T02:24:13;39.97;;;22.50;;
26050;SDS011;13825;53.496;10.020;2023-09-12T02:26:41;35.00;;;21.07;;
26050;SDS011;13825;53.496;10.020;2023-09-12T02:29:09;36.30;;;22.60;;
26050;SDS011;13825;53.496;10.020;2023-09-12T02:31:39;38.37;;;21.30;;
26050;SDS011;13825;53.496;10.020;2023-09-12T02:34:09;35.53;;;23.30;;
26050;SDS011;13825;53.496;10.020;2023-09-12T02:36:39;35.17;;;22.37;;
26050;SDS011;13825;53.496;10.020;2023-09-12T02:52:37;37.40;;;22.23;;
26050;SDS011;13825;53.496;10.020;2023-09-12T02:55:18;39.63;;;21.60;;
26050;SDS011;13825;53.496;10.020;2023-09-12T02:58:10;38.27;;;23.27;;
26050;SDS011;13825;53.496;10.020;2023-09-12T03:01:18;34.33;;;22.23;;
26050;SDS011;13825;53.496;10.020;2023-09-12T03:04:20;43.97;;;22.37;;
26050;SDS011;13825;53.496;10.020;2023-09-12T03:10:38;49.50;;;24.23;;
26050;SDS011;13825;53.496;10.020;2023-09-12T03:13:13;34.80;;;21.90;;
26050;SDS011;13825;53.496;10.020;2023-09-12T03:16:02;39.63;;;23.23;;
26050;SDS011;13825;53.496;10.020;2023-09-12T03:44:31;37.77;;;24.10;;
26050;SDS011;13825;53.496;10.020;2023-09-12T03:47:07;37.73;;;23.67;;
26050;SDS011;13825;53.496;10.020;2023-09-12T03:50:06;42.13;;;23.13;;
26050;SDS011;13825;53.496;10.020;2023-09-12T04:26:41;35.90;;;21.23;;
26050;SDS011;13825;53.496;10.020;2023-09-12T04:29:09;31.00;;;20.77;;
26050;SDS011;13825;53.496;10.020;2023-09-12T04:35:08;35.97;;;20.77;;
26050;SDS011;13825;53.496;10.020;2023-09-12T04:38:10;34.47;;;20.90;;
26050;SDS011;13825;53.496;10.020;2023-09-12T04:41:06;34.73;;;22.03;;
26050;SDS011;13825;53.496;10.020;2023-09-12T04:46:11;35.27;;;21.80;;
26050;SDS011;13825;53.496;10.020;2023-09-12T04:48:39;34.73;;;21.23;;
26050;SDS011;13825;53.496;10.020;2023-09-12T04:51:06;38.37;;;22.77;;
26050;SDS011;13825;53.496;10.020;2023-09-12T04:53:33;36.40;;;23.53;;
26050;SDS011;13825;53.496;10.020;2023-09-12T04:56:02;36.77;;;23.17;;
26050;SDS011;13825;53.496;10.020;2023-09-12T04:58:34;41.53;;;25.07;;
26050;SDS011;13825;53.496;10.020;2023-09-12T05:15:09;35.53;;;23.07;;
26050;SDS011;13825;53.496;10.020;2023-09-12T05:18:03;36.43;;;23.10;;
26050;SDS011;13825;53.496;10.020;2023-09-12T05:21:03;32.10;;;21.07;;
26050;SDS011;13825;53.496;10.020;2023-09-12T05:24:16;35.07;;;22.77;;
26050;SDS011;13825;53.496;10.020;2023-09-12T06:26:25;41.63;;;23.90;;
26050;SDS011;13825;53.496;10.020;2023-09-12T06:28:55;36.43;;;22.63;;
26050;SDS011;13825;53.496;10.020;2023-09-12T06:31:28;42.57;;;24.30;;
26050;SDS011;13825;53.496;10.020;2023-09-12T06:33:58;39.80;;;23.83;;
26050;SDS011;13825;53.496;10.020;2023-09-12T06:39:02;39.60;;;23.40;;
26050;SDS011;13825;53.496;10.020;2023-09-12T06:41:31;36.00;;;23.50;;
26050;SDS011;13825;53.496;10.020;2023-09-12T06:44:01;42.60;;;24.10;;
26050;SDS011;13825;53.496;10.020;2023-09-12T06:46:30;38.73;;;23.40;;
26050;SDS011;13825;53.496;10.020;2023-09-12T06:49:01;39.07;;;25.00;;
26050;SDS011;13825;53.496;10.020;2023-09-12T06:51:28;35.10;;;21.77;;
26050;SDS011;13825;53.496;10.020;2023-09-12T06:57:08;37.87;;;22.07;;
26050;SDS011;13825;53.496;10.020;2023-09-12T06:59:55;32.60;;;20.67;;
26050;SDS011;13825;53.496;10.020;2023-09-12T07:02:23;36.10;;;21.10;;
26050;SDS011;13825;53.496;10.020;2023-09-12T07:10:03;32.80;;;21.67;;
26050;SDS011;13825;53.496;10.020;2023-09-12T07:12:36;38.37;;;23.37;;
26050;SDS011;13825;53.496;10.020;2023-09-12T07:15:03;33.43;;;21.10;;
26050;SDS011;13825;53.496;10.020;2023-09-12T07:20:16;34.77;;;21.40;;
26050;SDS011;13825;53.496;10.020;2023-09-12T07:22:48;38.13;;;23.17;;
26050;SDS011;13825;53.496;10.020;2023-09-12T07:25:15;38.93;;;23.00;;
26050;SDS011;13825;53.496;10.020;2023-09-12T07:27:46;39.37;;;22.67;;
26050;SDS011;13825;53.496;10.020;2023-09-12T07:30:15;37.30;;;22.10;;
26050;SDS011;13825;53.496;10.020;2023-09-12T07:32:45;35.43;;;20.27;;
26050;SDS011;13825;53.496;10.020;2023-09-12T07:35:36;32.30;;;20.40;;
26050;SDS011;13825;53.496;10.020;2023-09-12T07:38:03;33.80;;;20.87;;
26050;SDS011;13825;53.496;10.020;2023-09-12T07:40:30;35.77;;;20.70;;
26050;SDS011;13825;53.496;10.020;2023-09-12T07:43:02;31.57;;;19.53;;
26050;SDS011;13825;53.496;10.020;2023-09-12T07:45:34;30.60;;;19.33;;
26050;SDS011;13825;53.496;10.020;2023-09-12T07:48:24;34.00;;;20.93;;
26050;SDS011;13825;53.496;10.020;2023-09-12T07:50:51;34.80;;;21.17;;
26050;SDS011;13825;53.496;10.020;2023-09-12T07:53:19;34.50;;;20.30;;
26050;SDS011;13825;53.496;10.020;2023-09-12T07:55:46;31.30;;;21.20;;
26050;SDS011;13825;53.496;10.020;2023-09-12T07:58:15;32.90;;;20.20;;
26050;SDS011;13825;53.496;10.020;2023-09-12T08:22:37;31.93;;;20.80;;
26050;SDS011;13825;53.496;10.020;2023-09-12T08:25:07;29.20;;;18.63;;
26050;SDS011;13825;53.496;10.020;2023-09-12T14:41:09;13.00;;;9.83;;
26050;SDS011;13825;53.496;10.020;2023-09-12T14:43:57;15.93;;;11.50;;
26050;SDS011;13825;53.496;10.020;2023-09-12T14:51:43;13.17;;;10.90;;
26050;SDS011;13825;53.496;10.020;2023-09-12T15:10:02;10.33;;;9.23;;
26050;SDS011;13825;53.496;10.020;2023-09-12T15:12:36;11.00;;;8.20;;
26050;SDS011;13825;53.496;10.020;2023-09-12T15:15:04;11.67;;;8.67;;
26050;SDS011;13825;53.496;10.020;2023-09-12T15:49:52;8.20;;;7.40;;
26050;SDS011;13825;53.496;10.020;2023-09-12T15:57:57;8.60;;;7.30;;
26050;SDS011;13825;53.496;10.020;2023-09-12T16:00:33;10.03;;;8.03;;
26050;SDS011;13825;53.496;10.020;2023-09-12T16:03:15;8.47;;;7.57;;
26050;SDS011;13825;53.496;10.020;2023-09-12T16:05:45;8.20;;;7.30;;
26050;SDS011;13825;53.496;10.020;2023-09-12T16:08:19;9.00;;;7.57;;
